sensor_id;sensor_type;location;lat;lon;timestamp;pressure;altitude;pressure_sealevel;temperature;humidity
26635;BME280;14490;54.208;37.686;2022-08-24T00:00:07;100192.06;;;19.63;71.44
26635;BME280;14490;54.208;37.686;2022-08-24T00:02:36;100340.25;;;20.57;71.89
26635;BME280;14490;54.208;37.686;2022-08-24T00:05:05;100194.97;;;19.62;72.01
26635;BME280;14490;54.208;37.686;2022-08-24T00:07:33;100341.94;;;20.50;72.19
26635;BME280;14490;54.208;37.686;2022-08-24T00:10:05;100247.13;;;19.93;72.36
26635;BME280;14490;54.208;37.686;2022-08-24T00:12:35;100313.88;;;20.32;72.34
26635;BME280;14490;54.208;37.686;2022-08-24T00:15:05;100305.97;;;20.21;72.42
26635;BME280;14490;54.208;37.686;2022-08-24T00:17:34;100152.31;;;19.27;72.32
26635;BME280;14490;54.208;37.686;2022-08-24T00:20:03;100119.09;;;18.98;72.44
26635;BME280;14490;54.208;37.686;2022-08-24T00:22:32;100171.13;;;19.38;72.43
26635;BME280;14490;54.208;37.686;2022-08-24T00:24:59;100346.00;;;20.38;72.56
26635;BME280;14490;54.208;37.686;2022-08-24T00:27:29;100172.47;;;19.34;72.71
26635;BME280;14490;54.208;37.686;2022-08-24T00:29:57;100345.47;;;20.35;73.03
26635;BME280;14490;54.208;37.686;2022-08-24T00:32:25;100347.69;;;20.31;73.17
26635;BME280;14490;54.208;37.686;2022-08-24T00:34:54;100344.44;;;20.28;73.39
26635;BME280;14490;54.208;37.686;2022-08-24T00:37:22;100299.38;;;19.98;73.70
26635;BME280;14490;54.208;37.686;2022-08-24T00:39:50;100343.91;;;20.24;73.75
26635;BME280;14490;54.208;37.686;2022-08-24T00:42:18;100262.25;;;19.71;73.74
26635;BME280;14490;54.208;37.686;2022-08-24T00:44:47;100225.47;;;19.49;73.73
26635;BME280;14490;54.208;37.686;2022-08-24T00:47:17;100354.44;;;20.19;73.97
26635;BME280;14490;54.208;37.686;2022-08-24T00:49:54;100085.81;;;18.52;73.79
26635;BME280;14490;54.208;37.686;2022-08-24T00:52:27;100348.63;;;20.14;74.13
26635;BME280;14490;54.208;37.686;2022-08-24T00:55:00;100355.81;;;20.15;74.44
26635;BME280;14490;54.208;37.686;2022-08-24T00:57:35;100359.91;;;20.11;74.65
26635;BME280;14490;54.208;37.686;2022-08-24T01:00:12;100212.66;;;19.24;74.75
26635;BME280;14490;54.208;37.686;2022-08-24T01:02:44;100352.38;;;20.05;75.08
26635;BME280;14490;54.208;37.686;2022-08-24T01:05:14;100356.44;;;20.01;75.19
26635;BME280;14490;54.208;37.686;2022-08-24T01:07:44;100348.56;;;19.98;75.41
26635;BME280;14490;54.208;37.686;2022-08-24T01:10:21;100293.72;;;19.49;75.52
26635;BME280;14490;54.208;37.686;2022-08-24T01:12:54;100294.47;;;19.59;75.55
26635;BME280;14490;54.208;37.686;2022-08-24T01:15:27;100362.03;;;19.91;75.81
26635;BME280;14490;54.208;37.686;2022-08-24T01:17:56;100299.19;;;19.49;75.75
26635;BME280;14490;54.208;37.686;2022-08-24T01:20:43;100204.00;;;18.95;75.89
26635;BME280;14490;54.208;37.686;2022-08-24T01:23:24;100127.25;;;18.38;75.92
26635;BME280;14490;54.208;37.686;2022-08-24T01:25:59;100306.72;;;19.55;76.15
26635;BME280;14490;54.208;37.686;2022-08-24T01:28:29;100315.94;;;19.54;76.37
26635;BME280;14490;54.208;37.686;2022-08-24T01:30:56;100366.59;;;19.83;76.79
26635;BME280;14490;54.208;37.686;2022-08-24T01:33:26;100368.66;;;19.81;77.29
26635;BME280;14490;54.208;37.686;2022-08-24T01:35:57;100328.53;;;19.47;77.80
26635;BME280;14490;54.208;37.686;2022-08-24T01:38:29;100332.59;;;19.43;77.88
26635;BME280;14490;54.208;37.686;2022-08-24T01:41:00;100262.50;;;19.00;78.06
26635;BME280;14490;54.208;37.686;2022-08-24T01:43:30;100371.47;;;19.63;78.34
26635;BME280;14490;54.208;37.686;2022-08-24T01:45:57;100196.56;;;18.53;78.66
26635;BME280;14490;54.208;37.686;2022-08-24T01:48:25;100281.25;;;18.95;78.77
26635;BME280;14490;54.208;37.686;2022-08-24T01:50:53;100273.38;;;18.92;79.16
26635;BME280;14490;54.208;37.686;2022-08-24T01:53:21;100151.28;;;18.17;79.41
26635;BME280;14490;54.208;37.686;2022-08-24T01:55:50;100382.97;;;19.49;79.70
26635;BME280;14490;54.208;37.686;2022-08-24T01:58:18;100289.25;;;18.97;79.94
26635;BME280;14490;54.208;37.686;2022-08-24T02:00:46;100338.22;;;19.24;80.44
26635;BME280;14490;54.208;37.686;2022-08-24T02:03:14;100189.53;;;18.33;80.89
26635;BME280;14490;54.208;37.686;2022-08-24T02:05:42;100387.78;;;19.37;81.10
26635;BME280;14490;54.208;37.686;2022-08-24T02:08:10;100131.22;;;17.83;81.03
26635;BME280;14490;54.208;37.686;2022-08-24T02:10:38;100382.97;;;19.31;81.52
26635;BME280;14490;54.208;37.686;2022-08-24T02:13:08;100243.09;;;18.42;81.52
26635;BME280;14490;54.208;37.686;2022-08-24T02:15:37;100199.28;;;18.18;81.79
26635;BME280;14490;54.208;37.686;2022-08-24T02:18:07;100273.44;;;18.57;81.87
26635;BME280;14490;54.208;37.686;2022-08-24T02:20:36;100310.88;;;18.73;82.05
26635;BME280;14490;54.208;37.686;2022-08-24T02:23:04;100389.25;;;19.24;82.15
26635;BME280;14490;54.208;37.686;2022-08-24T02:25:33;100383.94;;;19.22;82.18
26635;BME280;14490;54.208;37.686;2022-08-24T02:28:01;100394.84;;;19.22;82.09
26635;BME280;14490;54.208;37.686;2022-08-24T02:30:31;100243.75;;;18.36;82.02
26635;BME280;14490;54.208;37.686;2022-08-24T02:32:59;100286.91;;;18.59;82.00
26635;BME280;14490;54.208;37.686;2022-08-24T02:35:28;100385.09;;;19.20;82.34
26635;BME280;14490;54.208;37.686;2022-08-24T02:37:57;100346.72;;;18.95;82.12
26635;BME280;14490;54.208;37.686;2022-08-24T02:40:28;100339.72;;;18.93;82.09
26635;BME280;14490;54.208;37.686;2022-08-24T02:42:57;100278.66;;;18.50;82.08
26635;BME280;14490;54.208;37.686;2022-08-24T02:45:25;100392.81;;;19.24;81.93
26635;BME280;14490;54.208;37.686;2022-08-24T02:47:55;100390.94;;;19.25;81.97
26635;BME280;14490;54.208;37.686;2022-08-24T02:50:26;100389.06;;;19.25;82.01
26635;BME280;14490;54.208;37.686;2022-08-24T02:52:56;100392.81;;;19.24;81.95
26635;BME280;14490;54.208;37.686;2022-08-24T02:55:24;100298.91;;;18.66;81.72
26635;BME280;14490;54.208;37.686;2022-08-24T02:57:53;100274.69;;;18.45;81.93
26635;BME280;14490;54.208;37.686;2022-08-24T03:00:21;100230.38;;;18.25;81.52
26635;BME280;14490;54.208;37.686;2022-08-24T03:02:49;100336.19;;;18.83;82.08
26635;BME280;14490;54.208;37.686;2022-08-24T03:05:19;100388.22;;;19.25;81.83
26635;BME280;14490;54.208;37.686;2022-08-24T03:07:47;100402.03;;;19.23;81.50
26635;BME280;14490;54.208;37.686;2022-08-24T03:10:15;100403.72;;;19.24;81.64
26635;BME280;14490;54.208;37.686;2022-08-24T03:12:43;100167.00;;;17.88;81.63
26635;BME280;14490;54.208;37.686;2022-08-24T03:15:11;100325.28;;;18.83;81.67
26635;BME280;14490;54.208;37.686;2022-08-24T03:17:39;100403.41;;;19.27;81.72
26635;BME280;14490;54.208;37.686;2022-08-24T03:20:10;100328.72;;;18.85;81.71
26635;BME280;14490;54.208;37.686;2022-08-24T03:22:42;100424.94;;;19.30;81.48
26635;BME280;14490;54.208;37.686;2022-08-24T03:25:11;100130.50;;;17.63;81.08
26635;BME280;14490;54.208;37.686;2022-08-24T03:27:43;100351.03;;;19.06;81.24
26635;BME280;14490;54.208;37.686;2022-08-24T03:30:15;100369.91;;;19.17;81.14
26635;BME280;14490;54.208;37.686;2022-08-24T03:32:43;100269.16;;;18.54;80.51
26635;BME280;14490;54.208;37.686;2022-08-24T03:35:12;100410.75;;;19.44;80.51
26635;BME280;14490;54.208;37.686;2022-08-24T03:37:44;100215.66;;;18.36;80.01
26635;BME280;14490;54.208;37.686;2022-08-24T03:40:12;100427.38;;;19.51;80.00
26635;BME280;14490;54.208;37.686;2022-08-24T03:42:41;100417.97;;;19.53;79.80
26635;BME280;14490;54.208;37.686;2022-08-24T03:45:09;100126.16;;;17.88;79.28
26635;BME280;14490;54.208;37.686;2022-08-24T03:47:37;100247.56;;;18.61;79.06
26635;BME280;14490;54.208;37.686;2022-08-24T03:50:06;100372.28;;;19.38;79.04
26635;BME280;14490;54.208;37.686;2022-08-24T03:52:35;100415.06;;;19.73;79.04
26635;BME280;14490;54.208;37.686;2022-08-24T03:55:05;100406.69;;;19.74;78.76
26635;BME280;14490;54.208;37.686;2022-08-24T03:57:34;100409.91;;;19.70;78.52
26635;BME280;14490;54.208;37.686;2022-08-24T04:00:04;100114.94;;;18.09;77.90
26635;BME280;14490;54.208;37.686;2022-08-24T04:02:34;100276.38;;;19.07;77.64
26635;BME280;14490;54.208;37.686;2022-08-24T04:05:03;100350.25;;;19.57;77.35
26635;BME280;14490;54.208;37.686;2022-08-24T04:07:35;100443.56;;;20.04;77.12
26635;BME280;14490;54.208;37.686;2022-08-24T04:10:05;100419.16;;;20.10;76.68
26635;BME280;14490;54.208;37.686;2022-08-24T04:12:34;100292.09;;;19.39;76.21
26635;BME280;14490;54.208;37.686;2022-08-24T04:15:02;100422.13;;;20.25;76.05
26635;BME280;14490;54.208;37.686;2022-08-24T04:17:30;100431.56;;;20.31;75.62
26635;BME280;14490;54.208;37.686;2022-08-24T04:19:58;100128.13;;;18.65;74.95
26635;BME280;14490;54.208;37.686;2022-08-24T04:22:28;100180.63;;;18.92;74.62
26635;BME280;14490;54.208;37.686;2022-08-24T04:24:57;100439.38;;;20.51;74.45
26635;BME280;14490;54.208;37.686;2022-08-24T04:27:26;100429.47;;;20.58;73.86
26635;BME280;14490;54.208;37.686;2022-08-24T04:29:54;100418.91;;;20.63;73.31
26635;BME280;14490;54.208;37.686;2022-08-24T04:32:22;100295.97;;;20.04;72.79
26635;BME280;14490;54.208;37.686;2022-08-24T04:34:50;100389.31;;;20.67;72.39
26635;BME280;14490;54.208;37.686;2022-08-24T04:37:18;100324.06;;;20.22;71.89
26635;BME280;14490;54.208;37.686;2022-08-24T04:39:46;100141.72;;;19.24;71.71
26635;BME280;14490;54.208;37.686;2022-08-24T04:42:16;100422.72;;;21.03;71.88
26635;BME280;14490;54.208;37.686;2022-08-24T04:44:46;100421.72;;;21.12;71.47
26635;BME280;14490;54.208;37.686;2022-08-24T04:47:15;100219.47;;;19.96;70.82
26635;BME280;14490;54.208;37.686;2022-08-24T04:49:43;100430.97;;;21.27;70.57
26635;BME280;14490;54.208;37.686;2022-08-24T04:52:11;100311.34;;;20.63;70.30
26635;BME280;14490;54.208;37.686;2022-08-24T04:54:40;100426.53;;;21.42;69.74
26635;BME280;14490;54.208;37.686;2022-08-24T04:57:07;100296.81;;;20.70;69.50
26635;BME280;14490;54.208;37.686;2022-08-24T04:59:35;100414.16;;;21.46;69.34
26635;BME280;14490;54.208;37.686;2022-08-24T05:02:05;100110.50;;;19.77;68.94
26635;BME280;14490;54.208;37.686;2022-08-24T05:04:33;100447.22;;;21.69;68.93
26635;BME280;14490;54.208;37.686;2022-08-24T05:07:02;100405.78;;;21.64;68.28
26635;BME280;14490;54.208;37.686;2022-08-24T05:09:32;100228.78;;;20.59;67.75
26635;BME280;14490;54.208;37.686;2022-08-24T05:12:00;100166.41;;;20.39;67.83
26635;BME280;14490;54.208;37.686;2022-08-24T05:14:28;100439.13;;;22.00;67.44
26635;BME280;14490;54.208;37.686;2022-08-24T05:16:56;100238.16;;;20.89;67.19
26635;BME280;14490;54.208;37.686;2022-08-24T05:19:25;100248.22;;;21.13;66.48
26635;BME280;14490;54.208;37.686;2022-08-24T05:21:54;100348.53;;;21.77;66.26
26635;BME280;14490;54.208;37.686;2022-08-24T05:24:23;100421.88;;;22.30;66.01
26635;BME280;14490;54.208;37.686;2022-08-24T05:26:50;100438.38;;;22.53;65.41
26635;BME280;14490;54.208;37.686;2022-08-24T05:29:18;100435.25;;;22.72;64.93
26635;BME280;14490;54.208;37.686;2022-08-24T05:31:46;100303.72;;;22.09;63.93
26635;BME280;14490;54.208;37.686;2022-08-24T05:34:14;100431.69;;;22.94;63.30
26635;BME280;14490;54.208;37.686;2022-08-24T05:36:43;100435.22;;;23.03;63.22
26635;BME280;14490;54.208;37.686;2022-08-24T05:39:12;100315.56;;;22.40;62.83
26635;BME280;14490;54.208;37.686;2022-08-24T05:41:41;100424.16;;;23.11;62.61
26635;BME280;14490;54.208;37.686;2022-08-24T05:44:11;100343.31;;;22.68;62.08
26635;BME280;14490;54.208;37.686;2022-08-24T05:46:40;100347.53;;;22.78;61.96
26635;BME280;14490;54.208;37.686;2022-08-24T05:49:09;100297.81;;;22.51;61.69
26635;BME280;14490;54.208;37.686;2022-08-24T05:51:37;100343.88;;;22.86;61.56
26635;BME280;14490;54.208;37.686;2022-08-24T05:54:09;100357.66;;;23.01;61.29
26635;BME280;14490;54.208;37.686;2022-08-24T05:56:38;100431.44;;;23.49;61.05
26635;BME280;14490;54.208;37.686;2022-08-24T05:59:06;100294.38;;;22.79;60.82
26635;BME280;14490;54.208;37.686;2022-08-24T06:01:35;100437.56;;;23.74;60.50
26635;BME280;14490;54.208;37.686;2022-08-24T06:04:04;100355.28;;;23.35;60.18
26635;BME280;14490;54.208;37.686;2022-08-24T06:06:32;100305.03;;;23.12;59.69
26635;BME280;14490;54.208;37.686;2022-08-24T06:09:00;100388.84;;;23.68;59.21
26635;BME280;14490;54.208;37.686;2022-08-24T06:11:32;100430.75;;;23.99;58.81
26635;BME280;14490;54.208;37.686;2022-08-24T06:14:03;100403.91;;;23.86;58.34
26635;BME280;14490;54.208;37.686;2022-08-24T06:16:33;100435.91;;;24.17;57.88
26635;BME280;14490;54.208;37.686;2022-08-24T06:19:01;100381.34;;;23.91;57.82
26635;BME280;14490;54.208;37.686;2022-08-24T06:21:30;100435.06;;;24.31;57.50
26635;BME280;14490;54.208;37.686;2022-08-24T06:23:58;100230.41;;;23.23;57.02
26635;BME280;14490;54.208;37.686;2022-08-24T06:26:29;100264.84;;;23.48;56.74
26635;BME280;14490;54.208;37.686;2022-08-24T06:29:15;100193.09;;;23.14;56.64
26635;BME280;14490;54.208;37.686;2022-08-24T06:31:44;100316.09;;;24.00;55.60
26635;BME280;14490;54.208;37.686;2022-08-24T06:34:15;100277.81;;;23.83;54.85
26635;BME280;14490;54.208;37.686;2022-08-24T06:36:50;100312.50;;;24.14;54.05
26635;BME280;14490;54.208;37.686;2022-08-24T06:39:20;100366.22;;;24.45;53.46
26635;BME280;14490;54.208;37.686;2022-08-24T06:41:50;100293.06;;;24.15;53.29
26635;BME280;14490;54.208;37.686;2022-08-24T06:44:17;100351.97;;;24.57;53.04
26635;BME280;14490;54.208;37.686;2022-08-24T06:46:46;100421.22;;;25.11;52.73
26635;BME280;14490;54.208;37.686;2022-08-24T06:49:16;100420.44;;;25.17;52.56
26635;BME280;14490;54.208;37.686;2022-08-24T06:51:44;100246.94;;;24.17;52.54
26635;BME280;14490;54.208;37.686;2022-08-24T06:54:12;100345.94;;;24.82;52.03
26635;BME280;14490;54.208;37.686;2022-08-24T06:56:40;100222.00;;;24.19;52.06
26635;BME280;14490;54.208;37.686;2022-08-24T06:59:09;100322.50;;;24.93;51.84
26635;BME280;14490;54.208;37.686;2022-08-24T07:01:39;100183.13;;;24.22;51.45
26635;BME280;14490;54.208;37.686;2022-08-24T07:04:07;100164.88;;;24.21;51.06
26635;BME280;14490;54.208;37.686;2022-08-24T07:06:41;100415.84;;;25.73;50.91
26635;BME280;14490;54.208;37.686;2022-08-24T07:09:16;100411.25;;;25.80;50.40
26635;BME280;14490;54.208;37.686;2022-08-24T07:11:44;100409.19;;;25.88;50.29
26635;BME280;14490;54.208;37.686;2022-08-24T07:14:15;100253.72;;;24.99;50.00
26635;BME280;14490;54.208;37.686;2022-08-24T07:16:42;100219.00;;;24.77;49.59
26635;BME280;14490;54.208;37.686;2022-08-24T07:19:10;100231.19;;;24.89;49.03
26635;BME280;14490;54.208;37.686;2022-08-24T07:21:38;100319.88;;;25.55;49.30
26635;BME280;14490;54.208;37.686;2022-08-24T07:24:07;100276.63;;;25.28;48.92
26635;BME280;14490;54.208;37.686;2022-08-24T07:26:36;100406.00;;;26.19;48.37
26635;BME280;14490;54.208;37.686;2022-08-24T07:29:08;100320.25;;;25.80;47.72
26635;BME280;14490;54.208;37.686;2022-08-24T07:31:42;100397.16;;;26.30;47.90
26635;BME280;14490;54.208;37.686;2022-08-24T07:34:10;100263.47;;;25.58;47.33
26635;BME280;14490;54.208;37.686;2022-08-24T07:36:42;100206.88;;;25.27;46.83
26635;BME280;14490;54.208;37.686;2022-08-24T07:39:19;100405.75;;;26.55;46.47
26635;BME280;14490;54.208;37.686;2022-08-24T07:41:47;100189.88;;;25.24;46.47
26635;BME280;14490;54.208;37.686;2022-08-24T07:44:15;100196.53;;;25.36;46.22
26635;BME280;14490;54.208;37.686;2022-08-24T07:46:44;100320.69;;;26.24;45.51
26635;BME280;14490;54.208;37.686;2022-08-24T07:49:12;100279.00;;;26.13;44.91
26635;BME280;14490;54.208;37.686;2022-08-24T07:51:40;100164.84;;;25.53;44.50
26635;BME280;14490;54.208;37.686;2022-08-24T07:54:08;100267.41;;;26.17;44.51
26635;BME280;14490;54.208;37.686;2022-08-24T07:56:38;100393.81;;;27.08;43.50
26635;BME280;14490;54.208;37.686;2022-08-24T07:59:10;100358.09;;;27.00;43.00
26635;BME280;14490;54.208;37.686;2022-08-24T08:01:38;100391.09;;;27.28;43.02
26635;BME280;14490;54.208;37.686;2022-08-24T08:04:08;100376.63;;;27.26;42.38
26635;BME280;14490;54.208;37.686;2022-08-24T08:06:40;100390.25;;;27.41;41.77
26635;BME280;14490;54.208;37.686;2022-08-24T08:09:10;100384.94;;;27.46;41.63
26635;BME280;14490;54.208;37.686;2022-08-24T08:11:38;100345.56;;;27.31;41.26
26635;BME280;14490;54.208;37.686;2022-08-24T08:14:05;100391.13;;;27.61;41.54
26635;BME280;14490;54.208;37.686;2022-08-24T08:16:34;100380.91;;;27.68;40.49
26635;BME280;14490;54.208;37.686;2022-08-24T08:19:03;100402.19;;;27.74;40.03
26635;BME280;14490;54.208;37.686;2022-08-24T08:21:33;100257.34;;;26.96;38.66
26635;BME280;14490;54.208;37.686;2022-08-24T08:24:18;100344.94;;;27.55;38.94
26635;BME280;14490;54.208;37.686;2022-08-24T08:26:48;100272.22;;;27.08;38.23
26635;BME280;14490;54.208;37.686;2022-08-24T08:29:17;100274.97;;;27.08;38.49
26635;BME280;14490;54.208;37.686;2022-08-24T08:31:45;100318.16;;;27.42;39.09
26635;BME280;14490;54.208;37.686;2022-08-24T08:34:13;100356.25;;;27.60;38.92
26635;BME280;14490;54.208;37.686;2022-08-24T08:36:43;100311.78;;;27.42;38.99
26635;BME280;14490;54.208;37.686;2022-08-24T08:39:15;100363.44;;;27.81;38.22
26635;BME280;14490;54.208;37.686;2022-08-24T08:42:08;100346.22;;;27.72;37.92
26635;BME280;14490;54.208;37.686;2022-08-24T08:45:09;100242.66;;;27.15;37.76
26635;BME280;14490;54.208;37.686;2022-08-24T08:48:16;100353.59;;;27.91;37.42
26635;BME280;14490;54.208;37.686;2022-08-24T08:51:50;100312.38;;;27.63;38.39
26635;BME280;14490;54.208;37.686;2022-08-24T08:54:59;100246.47;;;27.41;37.51
26635;BME280;14490;54.208;37.686;2022-08-24T08:57:47;100380.81;;;28.20;36.76
26635;BME280;14490;54.208;37.686;2022-08-24T09:03:59;100258.75;;;27.71;36.54
26635;BME280;14490;54.208;37.686;2022-08-24T09:07:23;100281.22;;;27.94;35.73
26635;BME280;14490;54.208;37.686;2022-08-24T09:10:12;100226.00;;;27.68;35.48
26635;BME280;14490;54.208;37.686;2022-08-24T09:13:02;100362.34;;;28.59;36.19
26635;BME280;14490;54.208;37.686;2022-08-24T09:15:58;100350.81;;;28.62;35.36
26635;BME280;14490;54.208;37.686;2022-08-24T09:18:47;100324.88;;;28.50;34.93
26635;BME280;14490;54.208;37.686;2022-08-24T09:24:23;100196.16;;;27.83;34.66
26635;BME280;14490;54.208;37.686;2022-08-24T09:27:24;100355.44;;;28.81;34.44
26635;BME280;14490;54.208;37.686;2022-08-24T09:30:07;100366.03;;;28.91;33.77
26635;BME280;14490;54.208;37.686;2022-08-24T09:32:56;100282.06;;;28.46;34.40
26635;BME280;14490;54.208;37.686;2022-08-24T09:35:33;100362.16;;;28.92;35.01
26635;BME280;14490;54.208;37.686;2022-08-24T09:38:17;100356.00;;;28.90;35.07
26635;BME280;14490;54.208;37.686;2022-08-24T09:41:21;100337.34;;;28.79;33.98
26635;BME280;14490;54.208;37.686;2022-08-24T09:44:27;100361.75;;;28.88;33.79
26635;BME280;14490;54.208;37.686;2022-08-24T09:47:42;100365.59;;;28.94;34.01
26635;BME280;14490;54.208;37.686;2022-08-24T09:50:54;100264.38;;;28.47;33.84
26635;BME280;14490;54.208;37.686;2022-08-24T09:53:56;100357.59;;;29.04;34.24
26635;BME280;14490;54.208;37.686;2022-08-24T09:56:54;100358.00;;;29.07;33.99
26635;BME280;14490;54.208;37.686;2022-08-24T09:59:46;100293.88;;;28.72;33.99
26635;BME280;14490;54.208;37.686;2022-08-24T10:02:43;100353.03;;;29.16;33.18
26635;BME280;14490;54.208;37.686;2022-08-24T10:05:27;100354.72;;;29.23;33.28
26635;BME280;14490;54.208;37.686;2022-08-24T10:08:13;100340.56;;;29.32;33.05
26635;BME280;14490;54.208;37.686;2022-08-24T10:10:52;100294.69;;;29.04;33.41
26635;BME280;14490;54.208;37.686;2022-08-24T10:13:38;100326.63;;;29.13;33.53
26635;BME280;14490;54.208;37.686;2022-08-24T10:16:19;100174.19;;;28.33;33.16
26635;BME280;14490;54.208;37.686;2022-08-24T10:19:06;100296.13;;;29.13;33.65
26635;BME280;14490;54.208;37.686;2022-08-24T10:22:00;100319.53;;;29.24;34.17
26635;BME280;14490;54.208;37.686;2022-08-24T10:24:52;100322.63;;;29.34;33.29
26635;BME280;14490;54.208;37.686;2022-08-24T10:27:54;100345.09;;;29.51;32.62
26635;BME280;14490;54.208;37.686;2022-08-24T10:30:54;100351.88;;;29.55;31.73
26635;BME280;14490;54.208;37.686;2022-08-24T10:33:29;100131.97;;;28.37;32.26
26635;BME280;14490;54.208;37.686;2022-08-24T10:36:37;100210.94;;;28.78;32.56
26635;BME280;14490;54.208;37.686;2022-08-24T10:46:42;100330.59;;;29.49;32.90
26635;BME280;14490;54.208;37.686;2022-08-24T10:49:33;100235.53;;;28.92;32.83
26635;BME280;14490;54.208;37.686;2022-08-24T10:52:56;100146.31;;;28.52;32.46
26635;BME280;14490;54.208;37.686;2022-08-24T10:55:34;100327.84;;;29.67;32.18
26635;BME280;14490;54.208;37.686;2022-08-24T10:58:17;100195.66;;;28.93;32.05
26635;BME280;14490;54.208;37.686;2022-08-24T11:01:20;100324.56;;;29.76;32.37
26635;BME280;14490;54.208;37.686;2022-08-24T11:03:59;100320.16;;;29.69;32.88
26635;BME280;14490;54.208;37.686;2022-08-24T11:06:31;100319.53;;;29.67;32.34
26635;BME280;14490;54.208;37.686;2022-08-24T11:09:04;100273.44;;;29.48;32.04
26635;BME280;14490;54.208;37.686;2022-08-24T11:11:36;100312.06;;;29.67;32.61
26635;BME280;14490;54.208;37.686;2022-08-24T11:14:07;100232.28;;;29.20;32.31
26635;BME280;14490;54.208;37.686;2022-08-24T11:16:40;100183.47;;;28.94;32.36
26635;BME280;14490;54.208;37.686;2022-08-24T11:19:13;100297.31;;;29.67;32.31
26635;BME280;14490;54.208;37.686;2022-08-24T11:21:59;100278.97;;;29.48;32.44
26635;BME280;14490;54.208;37.686;2022-08-24T11:24:38;100213.56;;;29.15;32.35
26635;BME280;14490;54.208;37.686;2022-08-24T11:27:18;100314.53;;;29.82;32.65
26635;BME280;14490;54.208;37.686;2022-08-24T11:29:59;100192.59;;;29.01;32.80
26635;BME280;14490;54.208;37.686;2022-08-24T11:32:32;100302.94;;;29.85;32.83
26635;BME280;14490;54.208;37.686;2022-08-24T11:35:12;100238.09;;;29.37;32.69
26635;BME280;14490;54.208;37.686;2022-08-24T11:37:44;100316.19;;;29.83;32.39
26635;BME280;14490;54.208;37.686;2022-08-24T11:40:14;100157.94;;;28.92;32.70
26635;BME280;14490;54.208;37.686;2022-08-24T11:42:53;100240.28;;;29.53;32.58
26635;BME280;14490;54.208;37.686;2022-08-24T11:45:33;100258.66;;;29.72;32.36
26635;BME280;14490;54.208;37.686;2022-08-24T11:48:17;100300.53;;;30.07;31.55
26635;BME280;14490;54.208;37.686;2022-08-24T11:51:02;100297.53;;;30.08;32.14
26635;BME280;14490;54.208;37.686;2022-08-24T11:53:42;100092.63;;;28.78;32.34
26635;BME280;14490;54.208;37.686;2022-08-24T11:56:24;100229.66;;;29.50;32.29
26635;BME280;14490;54.208;37.686;2022-08-24T11:59:03;100223.25;;;29.49;32.59
26635;BME280;14490;54.208;37.686;2022-08-24T12:01:43;100281.97;;;29.89;32.13
26635;BME280;14490;54.208;37.686;2022-08-24T12:04:35;100178.81;;;29.38;32.16
26635;BME280;14490;54.208;37.686;2022-08-24T12:07:23;100163.34;;;29.30;31.71
26635;BME280;14490;54.208;37.686;2022-08-24T12:10:09;100079.78;;;28.84;31.66
26635;BME280;14490;54.208;37.686;2022-08-24T12:12:53;100152.84;;;29.32;32.09
26635;BME280;14490;54.208;37.686;2022-08-24T12:15:36;100143.06;;;29.30;32.06
26635;BME280;14490;54.208;37.686;2022-08-24T12:18:17;100227.75;;;29.87;32.46
26635;BME280;14490;54.208;37.686;2022-08-24T12:20:52;100048.53;;;28.77;32.51
26635;BME280;14490;54.208;37.686;2022-08-24T12:23:29;100255.59;;;29.98;32.45
26635;BME280;14490;54.208;37.686;2022-08-24T12:26:05;100214.88;;;29.74;32.22
26635;BME280;14490;54.208;37.686;2022-08-24T12:28:41;100279.94;;;30.14;31.78
26635;BME280;14490;54.208;37.686;2022-08-24T12:31:18;100059.16;;;28.80;31.73
26635;BME280;14490;54.208;37.686;2022-08-24T12:33:52;100125.75;;;29.09;32.50
26635;BME280;14490;54.208;37.686;2022-08-24T12:36:26;100241.44;;;29.88;32.35
26635;BME280;14490;54.208;37.686;2022-08-24T12:39:08;100242.63;;;29.92;32.81
26635;BME280;14490;54.208;37.686;2022-08-24T12:41:48;100137.97;;;29.26;32.49
26635;BME280;14490;54.208;37.686;2022-08-24T12:44:30;100196.50;;;29.55;32.49
26635;BME280;14490;54.208;37.686;2022-08-24T12:47:05;100266.47;;;30.00;32.58
26635;BME280;14490;54.208;37.686;2022-08-24T12:49:38;100267.00;;;29.90;32.43
26635;BME280;14490;54.208;37.686;2022-08-24T12:52:24;100117.28;;;29.04;32.36
26635;BME280;14490;54.208;37.686;2022-08-24T12:55:23;100135.25;;;29.20;31.85
26635;BME280;14490;54.208;37.686;2022-08-24T12:58:09;100228.22;;;29.84;32.21
26635;BME280;14490;54.208;37.686;2022-08-24T13:00:54;100154.44;;;29.40;32.35
26635;BME280;14490;54.208;37.686;2022-08-24T13:03:25;100214.25;;;29.72;32.65
26635;BME280;14490;54.208;37.686;2022-08-24T13:06:01;100054.00;;;28.83;32.63
26635;BME280;14490;54.208;37.686;2022-08-24T13:08:37;100245.66;;;29.91;32.67
26635;BME280;14490;54.208;37.686;2022-08-24T13:11:13;100182.34;;;29.63;32.51
26635;BME280;14490;54.208;37.686;2022-08-24T13:14:06;100250.19;;;30.03;32.29
26635;BME280;14490;54.208;37.686;2022-08-24T13:16:45;100102.50;;;29.10;32.70
26635;BME280;14490;54.208;37.686;2022-08-24T13:19:32;100041.16;;;28.64;32.62
26635;BME280;14490;54.208;37.686;2022-08-24T13:25:51;100217.38;;;29.82;32.72
26635;BME280;14490;54.208;37.686;2022-08-24T13:28:38;100248.50;;;30.02;33.00
26635;BME280;14490;54.208;37.686;2022-08-24T13:31:24;100157.41;;;29.45;33.06
26635;BME280;14490;54.208;37.686;2022-08-24T13:33:58;100243.88;;;29.96;32.95
26635;BME280;14490;54.208;37.686;2022-08-24T13:36:53;100240.97;;;29.91;33.03